Station History

Weather Underground - logo

Station Historical Data
Daily Summary for February 6, 2018 Units:  English    Metric   Both
« Previous Day
Next Day »
Daily Weekly Monthly Yearly Custom
  High: Low: Average:
Temperature: 72.3 °F 44.7 °F 56.9 °F
Dew Point: 55.4 °F 42.6 °F 49.1 °F
Humidity: 94 % 46 % 77 %
Wind Speed: 5.8 mph 0.0 mph 0.5 mph
Wind Gust: 5.8 mph - -
Wind:- - WSW
Pressure: 30.18 in 29.99 in -
Precipitation: 0.00 in    
Historical Graphs
 
 
Tabular Data for February 6, 2018
Time Temperature Dew Point Pressure Wind Wind Speed Wind Gust Humidity Rainfall Rate (Hourly)
00:00 51.7 °F 48.3 °F 30.01 in Calm     88 % 0.00 in
00:05 51.5 °F 47.8 °F 30.01 in Calm     87 % 0.00 in
00:10 51.1 °F 47.4 °F 30.00 in Calm     87 % 0.00 in
00:15 50.5 °F 46.8 °F 30.01 in Calm     87 % 0.00 in
00:20 50.3 °F 46.9 °F 30.00 in Calm     88 % 0.00 in
00:25 50.0 °F 46.6 °F 30.00 in Calm     88 % 0.00 in
00:30 49.5 °F 46.1 °F 30.00 in Calm     88 % 0.00 in
00:35 49.2 °F 45.8 °F 30.00 in Calm     88 % 0.00 in
00:40 49.0 °F 45.9 °F 30.00 in Calm     89 % 0.00 in
00:45 48.8 °F 46.0 °F 30.00 in Calm     90 % 0.00 in
00:51 49.1 °F 46.6 °F 30.00 in Calm     91 % 0.00 in
00:56 49.8 °F 47.3 °F 30.00 in Calm     91 % 0.00 in
01:01 50.4 °F 47.6 °F 30.00 in Calm     90 % 0.00 in
01:06 50.5 °F 47.4 °F 30.00 in Calm     89 % 0.00 in
01:11 50.8 °F 48.0 °F 30.00 in Calm     90 % 0.00 in
01:16 51.2 °F 48.4 °F 30.00 in SE 1.2 mph   90 % 0.00 in
01:21 51.5 °F 48.4 °F 29.99 in West 1.0 mph   89 % 0.00 in
01:26 51.7 °F 48.3 °F 30.00 in NNW 1.2 mph 1.2 mph 88 % 0.00 in
01:31 51.9 °F 48.5 °F 30.00 in Calm     88 % 0.00 in
01:36 51.8 °F 48.4 °F 30.00 in NNW 1.2 mph 1.2 mph 88 % 0.00 in
01:41 51.8 °F 48.4 °F 30.00 in Calm     88 % 0.00 in
01:46 51.5 °F 47.8 °F 30.00 in Calm     87 % 0.00 in
01:51 50.8 °F 46.8 °F 30.00 in Calm     86 % 0.00 in
01:56 49.8 °F 46.1 °F 30.00 in Calm     87 % 0.00 in
02:01 49.0 °F 45.6 °F 30.00 in Calm     88 % 0.00 in
02:06 48.4 °F 45.0 °F 30.00 in NNW 5.8 mph 5.8 mph 88 % 0.00 in
02:11 48.0 °F 44.9 °F 30.00 in Calm     89 % 0.00 in
02:16 47.5 °F 44.7 °F 30.00 in Calm     90 % 0.00 in
02:21 47.3 °F 44.5 °F 30.00 in Calm     90 % 0.00 in
02:26 47.3 °F 44.8 °F 30.00 in Calm     91 % 0.00 in
02:31 47.2 °F 44.7 °F 30.00 in Calm     91 % 0.00 in
02:36 47.1 °F 44.9 °F 30.00 in Calm     92 % 0.00 in
02:41 46.9 °F 44.7 °F 30.00 in Calm     92 % 0.00 in
02:46 47.0 °F 44.8 °F 30.00 in Calm     92 % 0.00 in
02:51 46.9 °F 44.7 °F 30.00 in Calm     92 % 0.00 in
02:56 46.7 °F 44.5 °F 30.00 in Calm     92 % 0.00 in
03:01 46.6 °F 44.4 °F 30.00 in Calm     92 % 0.00 in
03:06 46.8 °F 44.9 °F 30.00 in Calm     93 % 0.00 in
03:11 46.8 °F 44.6 °F 30.00 in Calm     92 % 0.00 in
03:16 46.8 °F 44.9 °F 30.00 in Calm     93 % 0.00 in
03:21 46.7 °F 44.5 °F 30.00 in Calm     92 % 0.00 in
03:26 46.5 °F 44.3 °F 30.00 in Calm     92 % 0.00 in
03:31 46.6 °F 44.7 °F 30.00 in Calm     93 % 0.00 in
03:36 46.8 °F 44.9 °F 30.00 in Calm     93 % 0.00 in
03:41 47.0 °F 45.1 °F 30.00 in Calm     93 % 0.00 in
03:46 46.8 °F 44.9 °F 29.99 in Calm     93 % 0.00 in
03:51 46.5 °F 44.3 °F 30.00 in Calm     92 % 0.00 in
03:56 46.4 °F 44.2 °F 30.00 in Calm     92 % 0.00 in
04:02 46.3 °F 44.4 °F 29.99 in Calm     93 % 0.00 in
04:07 46.3 °F 44.4 °F 29.99 in Calm     93 % 0.00 in
04:12 46.1 °F 43.9 °F 30.00 in Calm     92 % 0.00 in
04:17 45.8 °F 43.6 °F 30.00 in Calm     92 % 0.00 in
04:22 45.6 °F 43.4 °F 30.00 in Calm     92 % 0.00 in
04:27 45.5 °F 43.3 °F 30.00 in Calm     92 % 0.00 in
04:32 45.4 °F 43.2 °F 30.00 in Calm     92 % 0.00 in
04:37 45.6 °F 43.7 °F 30.01 in Calm     93 % 0.00 in
04:42 45.7 °F 43.8 °F 30.01 in Calm     93 % 0.00 in
04:47 45.7 °F 43.8 °F 30.01 in Calm     93 % 0.00 in
04:52 45.8 °F 43.9 °F 30.01 in Calm     93 % 0.00 in
04:57 46.0 °F 44.1 °F 30.01 in Calm     93 % 0.00 in
05:02 46.1 °F 44.5 °F 30.01 in Calm     94 % 0.00 in
05:07 46.1 °F 44.5 °F 30.01 in Calm     94 % 0.00 in
05:12 46.2 °F 44.6 °F 30.01 in Calm     94 % 0.00 in
05:17 46.4 °F 44.8 °F 30.00 in Calm     94 % 0.00 in
05:22 46.3 °F 44.7 °F 30.01 in Calm     94 % 0.00 in
05:27 46.0 °F 44.1 °F 30.01 in Calm     93 % 0.00 in
05:32 45.4 °F 43.2 °F 30.01 in Calm     92 % 0.00 in
05:37 45.5 °F 43.6 °F 30.02 in Calm     93 % 0.00 in
05:42 45.5 °F 43.6 °F 30.02 in Calm     93 % 0.00 in
05:47 45.9 °F 44.3 °F 30.02 in Calm     94 % 0.00 in
05:52 45.8 °F 44.2 °F 30.02 in Calm     94 % 0.00 in
05:53 45.7 °F 43.8 °F 30.02 in Calm     93 % 0.00 in
05:58 45.4 °F 43.5 °F 30.02 in Calm     93 % 0.00 in
06:03 45.1 °F 42.9 °F 30.02 in Calm     92 % 0.00 in
06:08 44.8 °F 42.6 °F 30.02 in Calm     92 % 0.00 in
06:13 44.8 °F 42.9 °F 30.02 in Calm     93 % 0.00 in
06:18 44.7 °F 42.8 °F 30.03 in Calm     93 % 0.00 in
06:23 44.9 °F 43.3 °F 30.03 in Calm     94 % 0.00 in
06:28 45.2 °F 43.6 °F 30.03 in Calm     94 % 0.00 in
06:33 45.4 °F 43.8 °F 30.03 in Calm     94 % 0.00 in
06:38 45.4 °F 43.8 °F 30.03 in Calm     94 % 0.00 in
06:43 45.4 °F 43.8 °F 30.04 in Calm     94 % 0.00 in
06:48 45.6 °F 44.0 °F 30.04 in Calm     94 % 0.00 in
06:53 45.6 °F 44.0 °F 30.04 in Calm     94 % 0.00 in
06:58 45.6 °F 44.0 °F 30.04 in Calm     94 % 0.00 in
07:03 45.5 °F 43.6 °F 30.04 in Calm     93 % 0.00 in
07:08 45.4 °F 43.5 °F 30.04 in Calm     93 % 0.00 in
07:13 45.1 °F 43.2 °F 30.04 in Calm     93 % 0.00 in
07:18 44.8 °F 42.9 °F 30.05 in Calm     93 % 0.00 in
07:23 44.7 °F 42.8 °F 30.05 in Calm     93 % 0.00 in
07:28 44.7 °F 42.8 °F 30.05 in Calm     93 % 0.00 in
07:33 44.8 °F 42.9 °F 30.05 in Calm     93 % 0.00 in
07:39 45.1 °F 43.2 °F 30.05 in Calm     93 % 0.00 in
07:44 45.3 °F 43.4 °F 30.05 in Calm     93 % 0.00 in
07:49 45.5 °F 43.6 °F 30.06 in Calm     93 % 0.00 in
07:54 46.0 °F 44.1 °F 30.06 in Calm     93 % 0.00 in
07:59 46.7 °F 45.1 °F 30.06 in Calm     94 % 0.00 in
08:04 47.7 °F 46.1 °F 30.07 in Calm     94 % 0.00 in
08:09 48.7 °F 46.8 °F 30.07 in Calm     93 % 0.00 in
08:14 49.6 °F 47.4 °F 30.07 in NNW 1.2 mph   92 % 0.00 in
08:19 49.9 °F 47.4 °F 30.07 in Calm     91 % 0.00 in
08:24 50.5 °F 47.7 °F 30.08 in Calm     90 % 0.00 in
08:29 51.1 °F 48.3 °F 30.08 in Calm     90 % 0.00 in
08:34 51.5 °F 48.4 °F 30.08 in Calm     89 % 0.00 in
08:39 51.4 °F 48.0 °F 30.08 in Calm     88 % 0.00 in
08:44 51.5 °F 48.4 °F 30.08 in Calm     89 % 0.00 in
08:49 51.8 °F 48.7 °F 30.08 in Calm     89 % 0.00 in
08:54 52.3 °F 48.9 °F 30.08 in Calm     88 % 0.00 in
08:59 53.4 °F 50.2 °F 30.09 in Calm     89 % 0.00 in
09:04 54.4 °F 50.3 °F 30.09 in Calm     86 % 0.00 in
09:09 55.5 °F 50.7 °F 30.09 in Calm     84 % 0.00 in
09:14 56.3 °F 50.9 °F 30.09 in South 1.2 mph   82 % 0.00 in
09:19 56.9 °F 51.1 °F 30.09 in Calm     81 % 0.00 in
09:24 57.6 °F 51.1 °F 30.09 in ENE 3.5 mph 3.5 mph 79 % 0.00 in
09:29 58.0 °F 51.5 °F 30.09 in Calm     79 % 0.00 in
09:34 58.6 °F 51.4 °F 30.10 in SSE 1.2 mph 1.2 mph 77 % 0.00 in
09:39 58.9 °F 51.3 °F 30.10 in NE 1.0 mph 1.0 mph 76 % 0.00 in
09:44 59.1 °F 51.5 °F 30.09 in South 1.2 mph 1.2 mph 76 % 0.00 in
09:49 59.5 °F 51.2 °F 30.10 in SE 3.5 mph 3.5 mph 74 % 0.00 in
09:54 59.3 °F 51.0 °F 30.10 in SSE 1.2 mph 1.2 mph 74 % 0.00 in
09:59 60.0 °F 52.1 °F 30.10 in ESE 1.0 mph 1.0 mph 75 % 0.00 in
10:04 60.6 °F 52.3 °F 30.10 in ENE 1.2 mph 1.2 mph 74 % 0.00 in
10:09 61.0 °F 51.9 °F 30.10 in SE 2.3 mph 2.3 mph 72 % 0.00 in
10:14 61.5 °F 52.4 °F 30.10 in Calm   0.3 mph 72 % 0.00 in
10:19 62.1 °F 52.2 °F 30.10 in ESE 2.3 mph   70 % 0.00 in
10:24 62.6 °F 52.3 °F 30.10 in ESE 3.5 mph 3.5 mph 69 % 0.00 in
10:29 62.8 °F 52.5 °F 30.10 in SE 1.2 mph 1.2 mph 69 % 0.00 in
10:34 63.0 °F 51.9 °F 30.10 in NW 3.5 mph 3.5 mph 67 % 0.00 in
10:39 62.8 °F 52.5 °F 30.10 in Calm   0.3 mph 69 % 0.00 in
10:44 63.6 °F 52.8 °F 30.10 in SSE 2.3 mph 2.3 mph 68 % 0.00 in
10:49 63.5 °F 51.9 °F 30.10 in NNW 2.3 mph 2.3 mph 66 % 0.00 in
10:54 63.9 °F 52.7 °F 30.10 in SE 2.3 mph 2.3 mph 67 % 0.00 in
10:59 64.3 °F 52.7 °F 30.09 in South 2.3 mph   66 % 0.00 in
11:04 64.7 °F 52.2 °F 30.09 in NW 2.3 mph 2.3 mph 64 % 0.00 in
11:09 65.1 °F 53.0 °F 30.09 in SSE 1.2 mph 1.2 mph 65 % 0.00 in
11:14 65.9 °F 53.4 °F 30.09 in NW 1.0 mph 1.0 mph 64 % 0.00 in
11:19 65.9 °F 52.9 °F 30.09 in NW 2.3 mph   63 % 0.00 in
11:24 66.2 °F 53.7 °F 30.09 in Calm   0.2 mph 64 % 0.00 in
11:29 66.8 °F 53.4 °F 30.09 in NW 1.2 mph 1.2 mph 62 % 0.00 in
11:34 67.4 °F 53.0 °F 30.09 in WNW 2.3 mph 2.3 mph 60 % 0.00 in
11:39 67.7 °F 53.3 °F 30.09 in SSW 1.2 mph 1.2 mph 60 % 0.00 in
11:44 68.0 °F 54.0 °F 30.09 in NE 1.2 mph   61 % 0.00 in
11:49 67.9 °F 52.6 °F 30.08 in NW 1.2 mph 1.2 mph 58 % 0.00 in
11:54 68.1 °F 53.2 °F 30.08 in SE 3.5 mph 3.5 mph 59 % 0.00 in
12:00 68.6 °F 53.7 °F 30.08 in NNW 2.3 mph 2.3 mph 59 % 0.00 in
12:05 68.9 °F 54.0 °F 30.08 in NNW 2.3 mph 2.3 mph 59 % 0.00 in
12:10 68.6 °F 53.7 °F 30.08 in Calm     59 % 0.00 in
12:15 68.8 °F 53.4 °F 30.07 in SE 2.3 mph 2.3 mph 58 % 0.00 in
12:20 69.4 °F 54.4 °F 30.07 in Calm     59 % 0.00 in
12:25 69.7 °F 53.8 °F 30.07 in NW 2.0 mph 2.0 mph 57 % 0.00 in
12:30 69.2 °F 53.8 °F 30.07 in NW 1.2 mph 1.2 mph 58 % 0.00 in
12:35 69.6 °F 53.7 °F 30.06 in NW 1.2 mph 1.2 mph 57 % 0.00 in
12:40 69.8 °F 54.4 °F 30.06 in East 2.0 mph 2.0 mph 58 % 0.00 in
12:45 70.5 °F 54.5 °F 30.06 in South 3.0 mph 3.0 mph 57 % 0.00 in
12:50 71.0 °F 55.0 °F 30.06 in NW 2.0 mph 2.0 mph 57 % 0.00 in
12:55 70.3 °F 53.9 °F 30.06 in NW 2.0 mph 2.0 mph 56 % 0.00 in
13:00 70.0 °F 54.1 °F 30.06 in SE 1.2 mph 1.2 mph 57 % 0.00 in
13:05 70.5 °F 55.0 °F 30.06 in South 1.2 mph 1.2 mph 58 % 0.00 in
13:10 70.5 °F 54.0 °F 30.05 in SSW 3.5 mph 3.5 mph 56 % 0.00 in
13:15 70.8 °F 54.8 °F 30.05 in SE 1.2 mph 1.2 mph 57 % 0.00 in
13:20 71.0 °F 54.5 °F 30.05 in Calm     56 % 0.00 in
13:25 71.4 °F 54.9 °F 30.05 in NNW 2.3 mph 2.3 mph 56 % 0.00 in
13:30 71.5 °F 55.0 °F 30.05 in SSE 3.5 mph 3.5 mph 56 % 0.00 in
13:35 72.0 °F 55.4 °F 30.05 in NW 2.0 mph 2.0 mph 56 % 0.00 in
13:40 71.6 °F 54.6 °F 30.04 in WNW 2.3 mph 2.3 mph 55 % 0.00 in
13:45 71.3 °F 53.8 °F 30.04 in West 3.5 mph 3.5 mph 54 % 0.00 in
13:50 71.3 °F 53.8 °F 30.04 in NW 1.2 mph 1.2 mph 54 % 0.00 in
13:55 71.1 °F 53.6 °F 30.04 in West 1.2 mph 1.2 mph 54 % 0.00 in
14:00 71.1 °F 52.6 °F 30.04 in NW 2.3 mph 2.3 mph 52 % 0.00 in
14:05 71.1 °F 53.6 °F 30.04 in Calm     54 % 0.00 in
14:10 71.5 °F 52.9 °F 30.03 in NW 1.2 mph   52 % 0.00 in
14:15 71.8 °F 52.7 °F 30.03 in Calm     51 % 0.00 in
14:20 72.2 °F 53.6 °F 30.03 in SSW 1.2 mph 1.2 mph 52 % 0.00 in
14:25 72.2 °F 52.0 °F 30.03 in SSE 1.2 mph   49 % 0.00 in
14:30 72.0 °F 52.9 °F 30.03 in Calm   0.2 mph 51 % 0.00 in
14:35 72.0 °F 52.9 °F 30.03 in NW 1.2 mph   51 % 0.00 in
14:40 72.2 °F 52.0 °F 30.03 in NNW 1.2 mph   49 % 0.00 in
14:45 72.1 °F 51.3 °F 30.03 in NW 1.2 mph 1.2 mph 48 % 0.00 in
14:50 72.2 °F 51.4 °F 30.03 in West 1.2 mph   48 % 0.00 in
14:55 72.2 °F 50.8 °F 30.03 in Calm     47 % 0.00 in
15:00 72.3 °F 51.5 °F 30.03 in WSW 2.3 mph 2.3 mph 48 % 0.00 in
15:05 72.2 °F 50.8 °F 30.03 in WNW 1.2 mph   47 % 0.00 in
15:10 72.2 °F 50.3 °F 30.03 in Calm   0.4 mph 46 % 0.00 in
15:15 72.1 °F 50.2 °F 30.03 in NW 2.3 mph 2.3 mph 46 % 0.00 in
15:20 72.0 °F 50.1 °F 30.03 in Calm     46 % 0.00 in
15:25 71.9 °F 50.0 °F 30.03 in WNW 1.2 mph 1.2 mph 46 % 0.00 in
15:30 72.0 °F 50.1 °F 30.03 in NW 1.2 mph   46 % 0.00 in
15:35 71.9 °F 50.0 °F 30.03 in Calm     46 % 0.00 in
15:40 71.8 °F 51.6 °F 30.03 in WNW 1.2 mph 1.2 mph 49 % 0.00 in
15:45 71.7 °F 50.4 °F 30.03 in Calm     47 % 0.00 in
15:50 71.6 °F 51.4 °F 30.03 in NW 1.2 mph 1.2 mph 49 % 0.00 in
15:55 71.6 °F 51.4 °F 30.03 in WNW 2.3 mph 2.3 mph 49 % 0.00 in
16:00 71.5 °F 51.3 °F 30.03 in Calm     49 % 0.00 in
16:05 71.4 °F 50.7 °F 30.03 in WNW 2.3 mph   48 % 0.00 in
16:10 71.3 °F 51.1 °F 30.03 in Calm     49 % 0.00 in
16:15 71.1 °F 51.0 °F 30.03 in Calm     49 % 0.00 in
16:20 71.0 °F 51.4 °F 30.03 in Calm     50 % 0.00 in
16:25 70.9 °F 51.9 °F 30.03 in Calm     51 % 0.00 in
16:30 70.7 °F 51.7 °F 30.04 in Calm     51 % 0.00 in
16:36 70.6 °F 51.6 °F 30.03 in WNW 1.2 mph 1.2 mph 51 % 0.00 in
16:41 70.5 °F 51.0 °F 30.03 in Calm     50 % 0.00 in
16:45 70.3 °F 51.8 °F 30.03 in Calm     52 % 0.00 in
16:50 70.0 °F 52.1 °F 30.03 in Calm     53 % 0.00 in
16:56 69.7 °F 51.8 °F 30.03 in Calm     53 % 0.00 in
17:01 69.4 °F 52.0 °F 30.03 in Calm     54 % 0.00 in
17:06 69.0 °F 52.6 °F 30.04 in NW 1.2 mph 1.2 mph 56 % 0.00 in
17:11 68.7 °F 52.8 °F 30.04 in Calm     57 % 0.00 in
17:16 68.1 °F 53.2 °F 30.04 in Calm     59 % 0.00 in
17:21 67.5 °F 53.1 °F 30.04 in Calm     60 % 0.00 in
17:26 67.0 °F 53.1 °F 30.04 in Calm     61 % 0.00 in
17:31 66.4 °F 53.0 °F 30.05 in Calm     62 % 0.00 in
17:36 65.6 °F 52.7 °F 30.05 in Calm     63 % 0.00 in
17:41 65.0 °F 52.9 °F 30.05 in Calm     65 % 0.00 in
17:46 64.4 °F 52.8 °F 30.05 in Calm     66 % 0.00 in
17:51 63.9 °F 52.7 °F 30.06 in Calm     67 % 0.00 in
17:56 63.5 °F 52.7 °F 30.06 in Calm     68 % 0.00 in
18:01 63.2 °F 52.9 °F 30.06 in Calm     69 % 0.00 in
18:06 62.8 °F 52.5 °F 30.06 in Calm     69 % 0.00 in
18:11 62.4 °F 52.9 °F 30.06 in Calm     71 % 0.00 in
18:16 61.7 °F 52.6 °F 30.07 in Calm     72 % 0.00 in
18:21 61.1 °F 52.0 °F 30.07 in Calm     72 % 0.00 in
18:26 60.7 °F 52.4 °F 30.07 in Calm     74 % 0.00 in
18:31 60.3 °F 52.3 °F 30.07 in Calm     75 % 0.00 in
18:36 60.0 °F 52.1 °F 30.07 in Calm     75 % 0.00 in
18:41 59.5 °F 51.9 °F 30.07 in Calm     76 % 0.00 in
18:46 59.1 °F 51.9 °F 30.08 in Calm     77 % 0.00 in
18:51 58.8 °F 52.0 °F 30.08 in Calm     78 % 0.00 in
18:56 58.6 °F 51.8 °F 30.08 in Calm     78 % 0.00 in
19:01 58.5 °F 52.0 °F 30.08 in Calm     79 % 0.00 in
19:06 58.3 °F 51.5 °F 30.08 in Calm     78 % 0.00 in
19:11 58.0 °F 51.5 °F 30.08 in Calm     79 % 0.00 in
19:16 57.8 °F 51.7 °F 30.08 in Calm     80 % 0.00 in
19:21 57.8 °F 51.7 °F 30.09 in Calm     80 % 0.00 in
19:26 57.7 °F 51.6 °F 30.09 in Calm     80 % 0.00 in
19:31 57.5 °F 51.4 °F 30.10 in Calm     80 % 0.00 in
19:36 57.6 °F 51.8 °F 30.10 in Calm     81 % 0.00 in
19:41 57.9 °F 51.8 °F 30.11 in Calm     80 % 0.00 in
19:46 57.9 °F 52.1 °F 30.10 in Calm     81 % 0.00 in
19:51 57.6 °F 51.8 °F 30.10 in Calm     81 % 0.00 in
19:56 57.2 °F 51.4 °F 30.10 in Calm     81 % 0.00 in
20:01 57.1 °F 51.3 °F 30.10 in Calm     81 % 0.00 in
20:06 56.8 °F 51.0 °F 30.11 in Calm     81 % 0.00 in
20:11 56.5 °F 50.7 °F 30.11 in Calm     81 % 0.00 in
20:16 56.2 °F 50.8 °F 30.11 in Calm     82 % 0.00 in
20:21 55.9 °F 50.5 °F 30.11 in Calm     82 % 0.00 in
20:26 55.8 °F 50.4 °F 30.11 in Calm     82 % 0.00 in
20:31 55.5 °F 50.4 °F 30.11 in Calm     83 % 0.00 in
20:36 55.2 °F 50.4 °F 30.12 in Calm     84 % 0.00 in
20:41 54.5 °F 49.4 °F 30.12 in Calm     83 % 0.00 in
20:46 53.8 °F 49.1 °F 30.12 in Calm     84 % 0.00 in
20:51 53.6 °F 49.5 °F 30.12 in Calm     86 % 0.00 in
20:56 53.9 °F 49.8 °F 30.12 in Calm     86 % 0.00 in
21:01 54.3 °F 50.2 °F 30.13 in Calm     86 % 0.00 in
21:06 54.5 °F 50.1 °F 30.13 in Calm     85 % 0.00 in
21:11 54.4 °F 50.0 °F 30.13 in Calm     85 % 0.00 in
21:16 54.3 °F 49.9 °F 30.13 in Calm     85 % 0.00 in
21:21 54.0 °F 49.6 °F 30.14 in Calm     85 % 0.00 in
21:26 53.7 °F 49.3 °F 30.13 in Calm     85 % 0.00 in
21:31 53.6 °F 49.5 °F 30.14 in Calm     86 % 0.00 in
21:36 53.3 °F 48.9 °F 30.14 in Calm     85 % 0.00 in
21:41 52.9 °F 48.8 °F 30.14 in Calm     86 % 0.00 in
21:46 52.6 °F 48.8 °F 30.14 in Calm     87 % 0.00 in
21:51 52.5 °F 49.0 °F 30.15 in Calm     88 % 0.00 in
21:56 52.6 °F 49.1 °F 30.15 in Calm     88 % 0.00 in
22:01 52.3 °F 48.5 °F 30.15 in Calm     87 % 0.00 in
22:06 52.1 °F 48.7 °F 30.15 in Calm     88 % 0.00 in
22:11 52.1 °F 48.7 °F 30.15 in Calm     88 % 0.00 in
22:16 52.1 °F 49.0 °F 30.15 in Calm     89 % 0.00 in
22:21 52.2 °F 49.1 °F 30.16 in Calm     89 % 0.00 in
22:26 52.2 °F 48.8 °F 30.16 in Calm     88 % 0.00 in
22:31 52.1 °F 48.7 °F 30.16 in Calm     88 % 0.00 in
22:36 51.8 °F 48.1 °F 30.16 in Calm     87 % 0.00 in
22:41 51.6 °F 48.2 °F 30.16 in Calm     88 % 0.00 in
22:46 51.5 °F 48.1 °F 30.16 in Calm     88 % 0.00 in
22:51 51.3 °F 47.9 °F 30.17 in Calm     88 % 0.00 in
22:56 51.3 °F 47.9 °F 30.17 in Calm     88 % 0.00 in
23:01 51.3 °F 47.9 °F 30.17 in Calm     88 % 0.00 in
23:06 51.1 °F 47.7 °F 30.17 in Calm     88 % 0.00 in
23:11 50.8 °F 47.1 °F 30.17 in Calm     87 % 0.00 in
23:16 50.4 °F 46.7 °F 30.17 in Calm     87 % 0.00 in
23:22 50.2 °F 46.8 °F 30.17 in Calm     88 % 0.00 in
23:27 50.0 °F 46.9 °F 30.17 in Calm     89 % 0.00 in
23:32 49.9 °F 47.1 °F 30.17 in Calm     90 % 0.00 in
23:37 50.1 °F 47.6 °F 30.17 in Calm     91 % 0.00 in
23:42 50.3 °F 47.8 °F 30.18 in Calm     91 % 0.00 in
23:47 50.4 °F 47.9 °F 30.18 in Calm     91 % 0.00 in
23:52 50.5 °F 47.7 °F 30.18 in Calm     90 % 0.00 in
23:57 50.3 °F 47.2 °F 30.18 in Calm     89 % 0.00 in
Park Place, Exeter, Tulare County, California, USA
Compliments of Weather Underground - 2.75 mb